Terminal Aerodrome Forecast
Issued by NWS

Home | Current Version | Previous Version | Text Only | Print | Product List | Glossary On
Versions: 1 2 3 4 5 6 7 8 9 10 11 12
000
FTUS43 KJKL 190500
TAFSME
TAF
KSME 190535Z 1906/2006 VRB04KT P6SM SKC
     FM191400 21012G23KT P6SM FEW130 SCT250
     FM192300 22008KT P6SM FEW030 SCT130
     FM200300 24006KT P6SM VCSH BKN025=

USA.gov is the U.S. government's official web portal to all federal, state and local government web resources and services.